Time;durP1;ratioP1;P1;durP2;ratioP2;P2;SDS_P1;SDS_P2;PMS_P1;PMS_P2;Temp;Humidity;BMP_temperature;BMP_pressure;BME280_temperature;BME280_humidity;BME280_pressure;Samples;Min_cycle;Max_cycle;Signal;HPM_P1;HPM_P2
2021/08/28 00:01:47;;;;;;;35.65;17.87;;;;;;;19.93;83.18;100980.13;1866234;77;21067;-59
2021/08/28 00:04:16;;;;;;;37.55;16.65;;;;;;;19.91;83.12;100978.06;1898120;75;21133;-58
2021/08/28 00:06:45;;;;;;;24.60;14.07;;;;;;;19.87;83.30;100977.44;1866338;77;21069;-58
2021/08/28 00:09:14;;;;;;;27.52;14.30;;;;;;;19.82;83.38;100979.59;1898180;75;21579;-59
2021/08/28 00:11:43;;;;;;;21.15;14.60;;;;;;;19.77;83.36;100975.94;1866258;77;21168;-59
2021/08/28 00:14:11;;;;;;;29.57;14.63;;;;;;;19.74;83.56;100976.16;1898177;75;21140;-59
2021/08/28 00:16:40;;;;;;;30.37;15.90;;;;;;;19.71;83.67;100972.83;1866175;77;21109;-59
2021/08/28 00:19:09;;;;;;;33.73;15.98;;;;;;;19.67;83.61;100975.72;1898187;75;21019;-58
2021/08/28 00:21:38;;;;;;;28.62;14.93;;;;;;;19.64;83.64;100969.28;1866235;77;21063;-59
2021/08/28 00:24:06;;;;;;;29.87;14.83;;;;;;;19.60;83.69;100971.78;1898131;75;21113;-59
2021/08/28 00:26:35;;;;;;;33.50;15.80;;;;;;;19.59;84.00;100978.60;1866312;77;21120;-59
2021/08/28 00:29:04;;;;;;;36.13;14.80;;;;;;;19.56;84.03;100968.98;1898102;75;21478;-58
2021/08/28 00:31:33;;;;;;;22.48;14.50;;;;;;;19.53;83.97;100978.57;1866231;77;21026;-59
2021/08/28 00:34:02;;;;;;;27.22;13.45;;;;;;;19.51;83.91;100971.12;1900652;75;21054;-59
2021/08/28 00:36:31;;;;;;;21.80;14.07;;;;;;;19.46;83.92;100969.30;1901434;75;21047;-59
2021/08/28 00:38:59;;;;;;;23.38;13.78;;;;;;;19.41;84.07;100966.10;1835621;78;21063;-58
2021/08/28 00:41:28;;;;;;;27.07;14.70;;;;;;;19.37;84.04;100964.62;1868238;77;21077;-59
2021/08/28 00:43:57;;;;;;;31.60;14.68;;;;;;;19.32;84.33;100969.44;1868355;77;21180;-59
2021/08/28 00:46:26;;;;;;;25.02;13.78;;;;;;;19.27;84.37;100970.62;1837117;78;21199;-58
2021/08/28 00:48:55;;;;;;;24.43;14.87;;;;;;;19.25;84.29;100973.86;1868417;77;21046;-59
2021/08/28 00:51:24;;;;;;;29.85;14.65;;;;;;;19.24;84.48;100973.52;1835664;78;21078;-58
2021/08/28 00:53:53;;;;;;;35.43;21.20;;;;;;;19.20;84.83;100976.03;1868359;77;21058;-58
2021/08/28 00:56:22;;;;;;;32.08;18.45;;;;;;;19.15;85.48;100963.49;1868473;77;21548;-59
2021/08/28 00:58:51;;;;;;;26.17;16.00;;;;;;;19.12;85.75;100966.86;1837147;78;21062;-58
2021/08/28 01:01:22;;;;;;;25.25;14.25;;;;;;;19.09;85.91;100977.28;1868329;77;21043;-58
2021/08/28 01:03:54;;;;;;;27.93;16.12;;;;;;;19.08;85.71;100979.57;1835638;78;21074;-58
2021/08/28 01:06:25;;;;;;;40.75;25.08;;;;;;;19.10;85.40;100981.64;1868298;77;21054;-59
2021/08/28 01:09:13;;;;;;;37.53;25.92;;;;;;;19.10;85.64;100977.16;1836489;78;21097;-58
2021/08/28 01:11:52;;;;;;;34.55;20.92;;;;;;;19.10;85.67;100982.98;1857004;77;21082;-58
2021/08/28 01:14:25;;;;;;;25.80;16.10;;;;;;;19.08;85.79;100973.74;1901306;75;21066;-58
2021/08/28 01:16:57;;;;;;;30.68;17.05;;;;;;;19.08;85.99;100980.91;1901158;75;21070;-59
2021/08/28 01:19:35;;;;;;;38.55;23.07;;;;;;;19.09;85.65;100983.95;1901392;75;21159;-59
2021/08/28 01:22:07;;;;;;;41.25;24.70;;;;;;;19.10;85.50;100983.83;1900369;75;21071;-58
2021/08/28 01:24:42;;;;;;;37.50;19.40;;;;;;;19.11;85.47;100982.03;1824768;78;21088;-58
2021/08/28 01:27:32;;;;;;;31.90;18.52;;;;;;;19.08;85.62;100976.91;1807354;78;21165;-59
2021/08/28 01:30:01;;;;;;;24.60;15.38;;;;;;;19.06;85.80;100982.83;1868237;77;21054;-58
2021/08/28 01:32:31;;;;;;;26.10;15.00;;;;;;;19.02;85.94;100980.02;1839026;77;21045;-59
2021/08/28 01:35:02;;;;;;;30.45;15.53;;;;;;;19.00;86.01;100981.94;1832320;78;21102;-58
2021/08/28 01:37:32;;;;;;;25.02;14.95;;;;;;;18.99;85.98;100979.73;1862587;77;21149;-59
2021/08/28 01:40:08;;;;;;;23.73;12.98;;;;;;;18.96;86.06;100978.63;1858871;77;21179;-59
2021/08/28 01:42:40;;;;;;;26.73;14.63;;;;;;;18.95;85.97;100981.41;1858483;77;21074;-59
2021/08/28 01:45:17;;;;;;;24.27;15.13;;;;;;;18.94;85.94;100985.02;1831955;78;21058;-58
2021/08/28 01:47:44;;;;;;;25.30;14.15;;;;;;;18.93;85.94;100988.67;1861919;77;21591;-59
2021/08/28 01:50:17;;;;;;;29.45;13.80;;;;;;;18.91;85.76;100983.44;1862611;77;21099;-59
2021/08/28 01:52:48;;;;;;;26.05;14.10;;;;;;;18.90;85.57;100986.59;1862693;77;21102;-59
2021/08/28 01:55:18;;;;;;;21.45;12.90;;;;;;;18.89;85.45;100986.20;1831428;78;21509;-59
2021/08/28 01:57:49;;;;;;;26.23;13.88;;;;;;;18.88;85.34;100988.48;1857970;77;21151;-59
2021/08/28 02:00:32;;;;;;;23.87;14.43;;;;;;;18.87;85.25;100994.80;1800648;77;21078;-59
2021/08/28 02:03:01;;;;;;;35.78;15.98;;;;;;;18.84;85.43;100991.49;1862634;77;21534;-59
2021/08/28 02:05:32;;;;;;;24.67;14.20;;;;;;;18.79;85.95;100993.09;1831889;78;21026;-58
2021/08/28 02:08:08;;;;;;;26.27;13.95;;;;;;;18.76;86.14;101000.00;1861581;77;21085;-59
2021/08/28 02:10:46;;;;;;;30.05;14.70;;;;;;;18.72;86.27;100991.84;1830051;78;21517;-59
2021/08/28 02:13:32;;;;;;;33.63;14.47;;;;;;;18.71;86.18;100994.13;1825448;78;21529;-60
2021/08/28 02:16:08;;;;;;;20.80;12.90;;;;;;;18.70;86.13;101005.28;1808111;77;21119;-59
2021/08/28 02:18:56;;;;;;;26.05;13.70;;;;;;;18.69;85.82;101006.23;1898638;75;21595;-59
2021/08/28 02:21:31;;;;;;;27.10;13.40;;;;;;;18.67;85.63;101004.15;1861646;77;21618;-60
2021/08/28 02:24:06;;;;;;;28.85;14.73;;;;;;;18.66;85.46;101001.58;1898492;75;21026;-59
2021/08/28 02:26:42;;;;;;;28.10;16.27;;;;;;;18.65;85.39;101002.56;1865590;77;21652;-59
2021/08/28 02:29:34;;;;;;;24.75;16.62;;;;;;;18.62;85.37;101006.77;1898408;75;21046;-58
2021/08/28 02:32:07;;;;;;;33.83;17.33;;;;;;;18.60;85.45;101007.35;1820664;78;21603;-59
2021/08/28 02:34:38;;;;;;;29.60;15.68;;;;;;;18.56;85.73;101003.19;1859219;77;21098;-58
2021/08/28 02:37:09;;;;;;;37.70;16.42;;;;;;;18.52;85.76;101006.06;1898122;75;21066;-58
2021/08/28 02:39:40;;;;;;;27.32;15.72;;;;;;;18.52;85.70;101007.39;1866141;77;21124;-59
2021/08/28 02:42:12;;;;;;;26.33;15.40;;;;;;;18.51;85.78;101009.67;1898168;75;21030;-59
2021/08/28 02:44:43;;;;;;;28.00;15.35;;;;;;;18.49;85.91;101004.92;1827162;78;21133;-59
2021/08/28 02:47:14;;;;;;;27.55;15.93;;;;;;;18.45;86.11;101008.77;1898539;75;21128;-58
2021/08/28 02:49:44;;;;;;;28.87;14.90;;;;;;;18.42;86.13;101015.63;1866274;77;21051;-58
2021/08/28 02:52:17;;;;;;;26.03;14.07;;;;;;;18.41;86.18;101017.94;1894398;75;21083;-58
2021/08/28 02:54:48;;;;;;;29.50;13.30;;;;;;;18.40;86.12;101016.70;1898194;75;21054;-59
2021/08/28 02:57:18;;;;;;;28.67;15.53;;;;;;;18.39;86.03;101014.52;1898226;75;21085;-59
2021/08/28 02:59:48;;;;;;;26.87;14.75;;;;;;;18.40;85.92;101022.88;1898368;75;21042;-58
2021/08/28 03:02:19;;;;;;;25.68;14.63;;;;;;;18.40;85.96;101025.55;1898321;75;21625;-59
2021/08/28 03:04:48;;;;;;;27.93;13.88;;;;;;;18.40;86.11;101028.21;1898364;75;21137;-59
2021/08/28 03:07:19;;;;;;;24.40;14.40;;;;;;;18.44;86.22;101035.06;1827301;78;21490;-59
2021/08/28 03:09:49;;;;;;;28.98;15.65;;;;;;;18.46;86.20;101038.48;1898222;75;21160;-59
2021/08/28 03:12:18;;;;;;;25.80;14.98;;;;;;;18.50;86.15;101035.98;1866114;75;21528;-59
2021/08/28 03:14:47;;;;;;;24.57;15.65;;;;;;;18.57;86.08;101043.55;1898198;75;21160;-58
2021/08/28 03:17:17;;;;;;;26.77;13.38;;;;;;;18.58;86.01;101042.61;1898290;75;21328;-58
2021/08/28 03:19:49;;;;;;;24.60;12.82;;;;;;;18.62;85.82;101044.94;1898161;75;21128;-59
2021/08/28 03:22:21;;;;;;;26.52;13.50;;;;;;;18.65;85.61;101050.56;1898186;75;21073;-58
2021/08/28 03:24:52;;;;;;;22.77;13.18;;;;;;;18.64;85.38;101050.18;1866408;77;21026;-59
2021/08/28 03:27:24;;;;;;;22.58;12.13;;;;;;;18.67;85.33;101052.64;1896281;75;21102;-57
2021/08/28 03:29:54;;;;;;;21.05;12.43;;;;;;;18.70;85.19;101049.30;1866294;77;21092;-57
2021/08/28 03:32:23;;;;;;;22.17;12.28;;;;;;;18.77;85.09;101040.37;1898299;75;21132;-59
2021/08/28 03:34:53;;;;;;;24.50;13.05;;;;;;;18.86;84.92;101030.43;1829529;78;21514;-58
2021/08/28 03:37:23;;;;;;;22.75;12.70;;;;;;;18.96;84.68;101033.80;1842198;77;21100;-58
2021/08/28 03:39:52;;;;;;;25.00;12.18;;;;;;;19.04;84.40;101044.31;1901530;75;21113;-58
2021/08/28 03:42:22;;;;;;;24.92;12.30;;;;;;;19.16;84.15;101045.25;1901328;75;21042;-58
2021/08/28 03:44:50;;;;;;;22.55;12.95;;;;;;;19.31;83.83;101055.81;1868932;77;21485;-58
2021/08/28 03:47:19;;;;;;;21.80;12.95;;;;;;;19.40;83.48;101059.17;1901226;75;21117;-58
2021/08/28 03:49:48;;;;;;;21.48;12.30;;;;;;;19.50;82.94;101063.40;1901314;75;21066;-58
2021/08/28 03:52:16;;;;;;;20.32;12.43;;;;;;;19.63;82.55;101075.75;1901390;75;21046;-58
2021/08/28 03:54:46;;;;;;;27.13;13.40;;;;;;;19.82;82.22;101077.12;1869104;77;21537;-58
2021/08/28 03:57:14;;;;;;;23.98;15.08;;;;;;;20.01;81.79;101073.95;1901337;75;21557;-58
2021/08/28 03:59:43;;;;;;;30.27;16.65;;;;;;;20.22;81.29;101075.04;1901342;75;21450;-58
2021/08/28 04:02:14;;;;;;;24.50;12.43;;;;;;;20.40;80.50;101078.16;1900743;75;21077;-58
2021/08/28 04:04:47;;;;;;;20.48;12.03;;;;;;;20.56;80.07;101087.20;1900063;75;21183;-58
2021/08/28 04:07:16;;;;;;;21.05;11.45;;;;;;;20.78;79.88;101089.12;1901421;75;21054;-58
2021/08/28 04:09:45;;;;;;;20.70;11.57;;;;;;;20.97;79.14;101079.68;1901329;75;21074;-58
2021/08/28 04:12:14;;;;;;;22.82;11.20;;;;;;;21.13;78.69;101086.05;1901246;75;21506;-59
2021/08/28 04:14:48;;;;;;;18.57;12.23;;;;;;;21.32;78.25;101085.44;1899468;75;21195;-58
2021/08/28 04:17:17;;;;;;;19.67;11.88;;;;;;;21.54;77.86;101086.84;1901353;75;21069;-58
2021/08/28 04:19:46;;;;;;;20.10;12.50;;;;;;;21.83;77.56;101088.98;1901409;75;21568;-59
2021/08/28 04:22:22;;;;;;;22.82;13.00;;;;;;;22.08;76.98;101086.99;1899934;75;21051;-59
2021/08/28 04:25:11;;;;;;;16.75;10.78;;;;;;;22.31;76.05;101081.08;1901214;75;21070;-59
2021/08/28 04:27:45;;;;;;;17.98;10.35;;;;;;;22.48;75.26;101083.22;1894064;75;21074;-58
2021/08/28 04:30:15;;;;;;;16.00;9.95;;;;;;;22.56;74.38;101093.31;1900423;75;21146;-59
2021/08/28 04:32:44;;;;;;;17.73;10.10;;;;;;;22.74;74.08;101091.75;1868330;77;21128;-59
2021/08/28 04:35:12;;;;;;;16.02;9.80;;;;;;;22.91;73.75;101091.64;1868268;77;21164;-58
2021/08/28 04:37:42;;;;;;;17.40;8.75;;;;;;;23.05;73.21;101094.50;1898547;75;21185;-59
2021/08/28 04:40:12;;;;;;;16.17;8.83;;;;;;;23.29;73.35;101085.30;1859622;77;21087;-61
2021/08/28 04:42:41;;;;;;;18.10;9.63;;;;;;;23.62;73.05;101086.00;1898347;75;21043;-61
2021/08/28 04:45:11;;;;;;;18.05;10.13;;;;;;;23.93;72.41;101088.67;1859749;77;21146;-61
2021/08/28 04:47:51;;;;;;;19.55;9.93;;;;;;;24.27;71.77;101092.69;1893698;75;21107;-61
2021/08/28 04:50:20;;;;;;;17.85;8.83;;;;;;;24.60;70.85;101090.57;1898240;75;21058;-60
2021/08/28 04:52:48;;;;;;;18.57;8.55;;;;;;;24.90;69.68;101091.41;1859616;77;21094;-60
2021/08/28 04:55:18;;;;;;;15.00;9.08;;;;;;;24.97;68.34;101097.92;1898318;75;21618;-60
2021/08/28 04:57:46;;;;;;;13.98;7.83;;;;;;;25.10;67.76;101101.62;1825652;77;21162;-61
2021/08/28 05:00:17;;;;;;;10.32;8.13;;;;;;;25.24;67.63;101100.34;1898289;75;21094;-61
2021/08/28 05:03:03;;;;;;;12.82;7.70;;;;;;;25.56;67.35;101103.12;1859610;77;21082;-61
2021/08/28 05:05:32;;;;;;;17.60;8.60;;;;;;;25.93;66.71;101104.47;1898134;75;21054;-60
2021/08/28 05:08:01;;;;;;;16.62;8.85;;;;;;;26.25;66.14;101102.27;1859603;77;21524;-61
2021/08/28 05:10:30;;;;;;;14.35;10.40;;;;;;;26.46;64.94;101097.39;1898036;75;21580;-61
2021/08/28 05:13:00;;;;;;;19.92;12.55;;;;;;;26.73;64.56;101092.94;1866338;77;21534;-61
2021/08/28 05:15:31;;;;;;;15.90;9.48;;;;;;;27.12;63.84;101088.47;1896542;75;21110;-60
2021/08/28 05:18:00;;;;;;;14.93;9.00;;;;;;;27.47;63.34;101078.55;1898189;75;21051;-61
2021/08/28 05:20:29;;;;;;;14.53;8.03;;;;;;;27.86;62.87;101073.94;1859653;77;21087;-60
2021/08/28 05:23:18;;;;;;;11.88;7.70;;;;;;;28.17;61.35;101081.49;1898109;75;21126;-61
2021/08/28 05:26:00;;;;;;;14.63;7.67;;;;;;;28.38;60.26;101075.05;1859705;77;21181;-61
2021/08/28 05:28:31;;;;;;;13.25;7.83;;;;;;;28.70;59.88;101080.19;1898111;75;21473;-61
2021/08/28 05:31:00;;;;;;;10.23;7.12;;;;;;;29.08;59.11;101070.96;1859633;77;21164;-60
2021/08/28 05:33:30;;;;;;;9.55;6.97;;;;;;;29.43;58.31;101075.62;1898131;75;21219;-60
2021/08/28 05:35:59;;;;;;;16.50;7.72;;;;;;;29.71;57.32;101077.87;1859797;77;21201;-61
2021/08/28 05:38:29;;;;;;;8.03;6.78;;;;;;;30.07;56.30;101090.95;1873281;75;21094;-60
2021/08/28 05:40:58;;;;;;;14.13;7.30;;;;;;;30.16;55.14;101092.06;1862598;77;21585;-61
2021/08/28 05:43:28;;;;;;;12.10;7.45;;;;;;;30.27;54.70;101098.95;1862624;77;21596;-60
2021/08/28 05:46:05;;;;;;;11.90;7.40;;;;;;;30.48;53.87;101097.47;1830006;78;21440;-61
2021/08/28 05:48:35;;;;;;;15.63;8.00;;;;;;;30.64;52.90;101093.25;1828784;78;21089;-61
2021/08/28 05:51:05;;;;;;;15.40;8.55;;;;;;;30.85;52.99;101097.98;1862660;77;21133;-61
2021/08/28 05:53:35;;;;;;;13.98;8.68;;;;;;;31.11;52.24;101097.56;1861812;77;21161;-60
2021/08/28 05:56:05;;;;;;;12.13;7.95;;;;;;;31.36;51.60;101099.50;1830099;78;21172;-62
2021/08/28 05:58:36;;;;;;;15.60;7.78;;;;;;;31.46;50.78;101103.29;1831812;78;21058;-60
2021/08/28 06:01:04;;;;;;;17.73;7.10;;;;;;;31.67;50.46;101097.62;1862654;77;21141;-61
2021/08/28 06:03:33;;;;;;;16.57;7.28;;;;;;;31.90;49.63;101089.32;1830080;78;21592;-61
2021/08/28 06:06:04;;;;;;;14.60;7.37;;;;;;;32.07;49.23;101089.95;1865832;77;21177;-61
2021/08/28 06:08:34;;;;;;;23.75;8.13;;;;;;;32.25;49.05;101091.71;1861747;77;21061;-61
2021/08/28 06:11:11;;;;;;;15.48;7.53;;;;;;;32.49;48.56;101095.08;1866019;75;21136;-61
2021/08/28 06:13:41;;;;;;;10.48;6.92;;;;;;;32.73;48.18;101092.48;1840224;77;21145;-61
2021/08/28 06:16:30;;;;;;;16.93;7.17;;;;;;;32.81;46.96;101098.30;1864823;77;21107;-61
2021/08/28 06:19:00;;;;;;;13.68;6.90;;;;;;;32.89;46.83;101099.53;1895886;75;21570;-61
2021/08/28 06:21:32;;;;;;;16.27;8.13;;;;;;;33.07;46.47;101097.64;1862545;77;21583;-61
2021/08/28 06:24:01;;;;;;;13.80;8.48;;;;;;;33.31;46.38;101089.56;1866380;77;21023;-61
2021/08/28 06:26:35;;;;;;;26.65;8.80;;;;;;;33.58;45.86;101097.86;1863789;77;21530;-61
2021/08/28 06:29:05;;;;;;;20.08;8.58;;;;;;;33.48;45.24;101099.61;1898499;75;21079;-60
2021/08/28 06:31:35;;;;;;;14.58;8.03;;;;;;;33.71;45.07;101106.13;1862496;77;21051;-61
2021/08/28 06:34:04;;;;;;;26.97;9.33;;;;;;;33.71;45.07;101106.13;1862523;77;21122;-61
2021/08/28 06:36:34;;;;;;;25.72;8.85;;;;;;;33.79;44.24;101095.05;1866174;77;21103;-60
2021/08/28 06:39:05;;;;;;;25.50;9.45;;;;;;;33.74;43.72;101100.27;1866363;76;21213;-61
2021/08/28 06:41:35;;;;;;;20.52;8.55;;;;;;;33.80;43.72;101102.70;1866424;77;21094;-61
2021/08/28 06:44:23;;;;;;;21.48;9.60;;;;;;;33.81;43.22;101107.97;1866328;77;21124;-60
2021/08/28 06:47:10;;;;;;;24.92;10.05;;;;;;;33.95;43.09;101102.01;1866477;77;21164;-61
2021/08/28 06:49:59;;;;;;;25.27;9.25;;;;;;;34.16;42.55;101100.16;1892674;75;21497;-61
2021/08/28 06:52:45;;;;;;;18.65;8.70;;;;;;;34.16;42.55;101100.16;1862501;77;21087;-61
2021/08/28 06:55:31;;;;;;;31.48;13.13;;;;;;;34.35;42.59;101095.83;1833281;78;21070;-61
2021/08/28 06:58:18;;;;;;;25.17;9.00;;;;;;;34.58;41.91;101103.11;1856577;77;21082;-58
2021/08/28 07:01:05;;;;;;;24.30;9.60;;;;;;;34.48;41.43;101095.83;1830009;78;21168;-59
2021/08/28 07:03:47;;;;;;;18.57;9.33;;;;;;;34.60;41.64;101104.23;1826594;78;21173;-58
2021/08/28 07:06:18;;;;;;;15.48;7.87;;;;;;;35.09;40.93;101094.76;1862414;77;21130;-58
2021/08/28 07:08:46;;;;;;;16.12;7.25;;;;;;;35.09;40.93;101094.76;1830017;78;21074;-58
2021/08/28 07:11:15;;;;;;;16.12;7.97;;;;;;;35.30;40.68;101092.33;1862447;77;21067;-59
2021/08/28 07:13:44;;;;;;;13.68;7.78;;;;;;;35.42;40.68;101086.19;1830050;78;21019;-59
2021/08/28 07:16:12;;;;;;;13.68;8.05;;;;;;;35.59;39.89;101091.47;1831891;78;21145;-58
2021/08/28 07:18:41;;;;;;;18.82;11.00;;;;;;;35.61;39.68;101093.46;1862555;77;21050;-58
2021/08/28 07:21:10;;;;;;;15.18;7.75;;;;;;;35.89;39.49;101089.56;1830038;78;21085;-58
2021/08/28 07:23:39;;;;;;;18.27;8.45;;;;;;;36.19;39.01;101087.61;1862454;77;21141;-59
2021/08/28 07:26:10;;;;;;;17.25;10.65;;;;;;;36.40;38.58;101087.79;1864701;77;21209;-59
2021/08/28 07:28:40;;;;;;;16.07;8.68;;;;;;;36.46;38.30;101093.20;1868404;75;21545;-58
2021/08/28 07:31:26;;;;;;;22.50;8.98;;;;;;;36.78;38.35;101086.33;1862639;77;21070;-58
2021/08/28 07:33:57;;;;;;;15.05;9.25;;;;;;;37.03;37.62;101087.64;1862665;77;21566;-58
2021/08/28 07:36:25;;;;;;;16.70;10.32;;;;;;;37.10;37.47;101084.84;1830092;78;21523;-58
2021/08/28 07:38:54;;;;;;;17.60;8.08;;;;;;;37.40;37.08;101084.93;1833342;78;21536;-59
2021/08/28 07:41:23;;;;;;;15.03;7.78;;;;;;;37.67;36.70;101080.52;1837314;78;21042;-58
2021/08/28 07:43:52;;;;;;;15.53;8.28;;;;;;;37.37;36.59;101083.17;1868448;77;21079;-58
2021/08/28 07:46:21;;;;;;;18.60;9.48;;;;;;;37.21;36.38;101072.30;1835765;78;21548;-59
2021/08/28 07:48:51;;;;;;;18.50;8.25;;;;;;;37.38;36.34;101074.72;1864724;77;21081;-59
2021/08/28 07:51:20;;;;;;;15.88;8.20;;;;;;;37.60;35.93;101072.32;1869092;77;21086;-58
2021/08/28 07:53:50;;;;;;;15.18;7.50;;;;;;;37.47;35.73;101067.84;1868985;77;21591;-58
2021/08/28 07:56:18;;;;;;;29.42;8.50;;;;;;;37.31;35.35;101062.14;1869000;77;21074;-58
2021/08/28 07:58:47;;;;;;;13.72;8.98;;;;;;;37.26;35.73;101061.47;1869026;77;21055;-58
2021/08/28 08:01:16;;;;;;;14.15;7.35;;;;;;;37.18;35.20;101058.48;1868887;77;21140;-59
2021/08/28 08:03:46;;;;;;;20.08;7.72;;;;;;;37.32;35.28;101058.34;1868867;77;21141;-59
2021/08/28 08:06:23;;;;;;;15.85;7.80;;;;;;;37.33;35.57;101060.00;1868879;77;21144;-58
2021/08/28 08:09:03;;;;;;;13.00;8.55;;;;;;;37.11;35.68;101054.93;1868893;77;21054;-58
2021/08/28 08:11:50;;;;;;;15.75;8.08;;;;;;;37.35;35.96;101053.23;1868871;77;21154;-58
2021/08/28 08:14:21;;;;;;;15.88;7.67;;;;;;;37.31;35.73;101045.67;1868943;77;21069;-58
2021/08/28 08:16:51;;;;;;;16.37;8.93;;;;;;;37.44;35.60;101047.72;1864447;77;21066;-57
2021/08/28 08:19:31;;;;;;;14.13;7.37;;;;;;;37.40;34.97;101047.03;1805815;79;21140;-58
2021/08/28 08:22:17;;;;;;;13.00;8.53;;;;;;;37.39;35.28;101046.20;1868954;77;21275;-58
2021/08/28 08:24:50;;;;;;;14.15;8.18;;;;;;;37.27;35.15;101035.13;1867404;77;21155;-57
2021/08/28 08:27:22;;;;;;;19.20;8.68;;;;;;;37.21;35.85;101032.48;1864706;77;21164;-58
2021/08/28 08:29:56;;;;;;;17.85;8.65;;;;;;;37.29;35.41;101030.25;1867251;77;21151;-64
2021/08/28 08:32:29;;;;;;;13.00;7.90;;;;;;;37.49;35.38;101031.91;1852535;75;21057;-63
2021/08/28 08:34:58;;;;;;;14.28;8.85;;;;;;;37.50;34.82;101031.36;1802216;80;21566;-62
2021/08/28 08:37:29;;;;;;;14.95;8.98;;;;;;;37.74;34.48;101032.33;1852467;77;21046;-61
2021/08/28 08:39:57;;;;;;;13.75;8.50;;;;;;;37.73;34.09;101036.99;1833905;77;21475;-62
2021/08/28 08:42:28;;;;;;;13.10;8.65;;;;;;;37.53;34.13;101035.86;1819651;78;21037;-62
2021/08/28 08:44:58;;;;;;;16.60;8.65;;;;;;;37.34;34.43;101031.48;1819368;79;21488;-62
2021/08/28 08:47:28;;;;;;;14.73;8.68;;;;;;;37.20;34.69;101028.88;1820012;77;21216;-62
2021/08/28 08:49:58;;;;;;;13.00;8.25;;;;;;;37.02;34.56;101034.34;1820175;77;21217;-65
2021/08/28 08:52:31;;;;;;;15.60;8.28;;;;;;;37.03;34.72;101031.92;1886898;75;21542;-65
2021/08/28 08:55:02;;;;;;;15.98;8.93;;;;;;;37.06;34.34;101027.36;1837941;77;21561;-66
2021/08/28 08:57:31;;;;;;;13.28;7.90;;;;;;;36.81;34.39;101022.75;1891634;75;21114;-63
2021/08/28 09:00:00;;;;;;;12.93;7.45;;;;;;;36.74;34.81;101020.61;1890055;76;21050;-67
2021/08/28 09:02:31;;;;;;;12.58;7.85;;;;;;;36.71;34.60;101019.72;1896433;75;21510;-62
2021/08/28 09:05:20;;;;;;;15.13;8.25;;;;;;;36.66;34.68;101021.75;1896414;75;21555;-60
2021/08/28 09:07:48;;;;;;;12.93;8.23;;;;;;;36.60;34.68;101019.06;1890657;75;21133;-60
2021/08/28 09:10:17;;;;;;;11.25;8.20;;;;;;;36.40;34.75;101017.33;1890231;76;21039;-61
2021/08/28 09:12:46;;;;;;;14.83;7.92;;;;;;;36.41;35.12;101014.91;1897292;75;21450;-60
2021/08/28 09:15:16;;;;;;;10.05;7.65;;;;;;;36.57;35.58;101015.39;1859605;77;21530;-59
2021/08/28 09:17:47;;;;;;;17.37;8.18;;;;;;;36.60;35.23;101011.66;1890846;75;21133;-59
2021/08/28 09:20:20;;;;;;;13.17;8.47;;;;;;;36.86;35.27;101005.63;1888350;76;21067;-60
2021/08/28 09:22:50;;;;;;;15.20;8.05;;;;;;;36.82;34.79;101007.98;1897444;75;21117;-63
2021/08/28 09:25:26;;;;;;;11.35;8.68;;;;;;;36.82;34.84;101006.61;1859583;77;21476;-65
2021/08/28 09:27:55;;;;;;;13.88;8.60;;;;;;;36.88;34.96;101003.48;1890337;75;21046;-66
2021/08/28 09:30:34;;;;;;;12.80;7.97;;;;;;;36.86;34.70;100996.85;1890008;76;21066;-66
2021/08/28 09:33:05;;;;;;;13.95;8.35;;;;;;;36.81;34.88;101000.81;1857908;77;21137;-65
2021/08/28 09:35:37;;;;;;;11.45;7.45;;;;;;;36.79;34.72;101000.20;1819337;78;21070;-64
2021/08/28 09:38:11;;;;;;;15.40;7.75;;;;;;;36.86;35.09;100998.22;1761524;81;21074;-66
2021/08/28 09:40:42;;;;;;;15.63;8.48;;;;;;;36.89;34.84;100986.80;1799683;78;21117;-66
2021/08/28 09:43:20;;;;;;;12.35;8.35;;;;;;;36.83;34.74;100992.36;1833426;78;21099;-65
2021/08/28 09:45:51;;;;;;;18.23;8.88;;;;;;;36.95;35.11;100985.59;1833481;78;21133;-64
2021/08/28 09:48:21;;;;;;;15.55;8.63;;;;;;;37.36;35.17;100989.53;1833577;78;21108;-66
2021/08/28 09:50:51;;;;;;;12.63;8.08;;;;;;;37.40;34.44;100985.24;1833575;77;21135;-67
2021/08/28 09:53:23;;;;;;;14.33;7.40;;;;;;;37.23;34.42;100984.51;1837084;78;21150;-67
2021/08/28 09:56:00;;;;;;;9.78;7.62;;;;;;;37.25;34.32;100982.36;1833870;77;21103;-63
2021/08/28 09:58:36;;;;;;;13.45;7.78;;;;;;;37.28;34.31;100990.15;1802163;80;21064;-63
2021/08/28 10:01:03;;;;;;;12.73;8.05;;;;;;;37.14;34.38;100980.38;1809619;77;21054;-65
2021/08/28 10:03:33;;;;;;;13.05;7.33;;;;;;;37.18;34.36;100984.36;1833591;78;21044;-65
2021/08/28 10:06:03;;;;;;;14.73;9.28;;;;;;;36.98;34.51;100974.13;1833484;78;21449;-62
2021/08/28 10:08:33;;;;;;;14.55;7.72;;;;;;;36.93;34.77;100972.60;1835518;78;21575;-62
2021/08/28 10:11:02;;;;;;;14.80;8.28;;;;;;;37.12;35.15;100973.45;1839707;77;21101;-64
2021/08/28 10:13:35;;;;;;;12.98;7.80;;;;;;;37.14;34.69;100976.80;1868295;77;21606;-63
2021/08/28 10:16:05;;;;;;;16.62;8.53;;;;;;;37.07;34.29;100970.01;1862902;77;21137;-64
2021/08/28 10:18:37;;;;;;;12.58;8.43;;;;;;;37.08;34.36;100970.33;1837166;78;21144;-63
2021/08/28 10:21:07;;;;;;;15.05;8.10;;;;;;;37.05;34.81;100963.91;1843417;77;21129;-64
2021/08/28 10:23:37;;;;;;;17.77;7.33;;;;;;;36.93;34.94;100965.74;1868976;77;21030;-64
2021/08/28 10:26:09;;;;;;;12.25;7.65;;;;;;;36.63;34.50;100962.36;1898317;75;21019;-63
2021/08/28 10:28:43;;;;;;;11.03;7.92;;;;;;;36.46;35.05;100961.58;1887137;76;21023;-63
2021/08/28 10:31:12;;;;;;;15.58;7.60;;;;;;;36.19;35.15;100962.39;1851680;77;21185;-64
2021/08/28 10:33:41;;;;;;;20.57;8.63;;;;;;;35.99;35.59;100959.78;1802010;80;21471;-63
2021/08/28 10:36:10;;;;;;;13.80;8.20;;;;;;;35.97;36.30;100956.42;1834449;77;21056;-63
2021/08/28 10:38:41;;;;;;;10.95;7.30;;;;;;;36.02;35.93;100956.57;1837073;78;21511;-63
2021/08/28 10:41:11;;;;;;;12.85;7.80;;;;;;;35.85;36.02;100954.09;1837568;77;21088;-63
2021/08/28 10:43:41;;;;;;;11.25;6.53;;;;;;;35.83;36.02;100955.67;1836971;78;21495;-64
2021/08/28 10:46:21;;;;;;;11.70;6.97;;;;;;;35.67;35.93;100954.30;1837149;77;21052;-64
2021/08/28 10:49:00;;;;;;;13.05;8.25;;;;;;;35.45;36.45;100959.80;1805603;78;21077;-64
2021/08/28 10:51:34;;;;;;;18.62;9.03;;;;;;;35.42;36.75;100950.67;1848148;77;21075;-63
2021/08/28 10:54:08;;;;;;;15.90;8.10;;;;;;;35.41;36.97;100944.88;1868904;77;21054;-61
2021/08/28 10:56:43;;;;;;;14.30;7.85;;;;;;;35.49;37.10;100951.47;1868857;77;21125;-62
2021/08/28 10:59:23;;;;;;;15.30;9.08;;;;;;;35.46;37.36;100949.16;1869009;77;21051;-61
2021/08/28 11:02:03;;;;;;;10.93;8.10;;;;;;;35.45;37.27;100948.33;1901239;75;21110;-61
2021/08/28 11:04:44;;;;;;;13.58;7.62;;;;;;;35.41;37.38;100941.59;1867907;77;21615;-62
2021/08/28 11:07:30;;;;;;;15.03;8.08;;;;;;;35.34;37.79;100940.79;1868424;77;21047;-62
2021/08/28 11:10:17;;;;;;;16.77;7.35;;;;;;;35.25;37.49;100945.70;1867347;77;21591;-62
2021/08/28 11:12:52;;;;;;;12.50;7.62;;;;;;;35.16;37.91;100942.34;1869005;77;21101;-61
2021/08/28 11:15:34;;;;;;;13.72;8.00;;;;;;;35.00;37.85;100934.62;1868971;77;21442;-61
2021/08/28 11:18:01;;;;;;;17.42;8.03;;;;;;;34.90;38.10;100935.63;1868426;77;21552;-61
2021/08/28 11:20:48;;;;;;;15.40;7.40;;;;;;;34.83;38.34;100945.21;1865694;77;21501;-62
2021/08/28 11:23:20;;;;;;;15.78;7.50;;;;;;;34.32;39.04;100941.28;1869195;77;21599;-62
2021/08/28 11:25:51;;;;;;;13.03;7.85;;;;;;;34.32;39.04;100941.28;1869190;77;21082;-62
2021/08/28 11:28:23;;;;;;;12.33;7.60;;;;;;;34.22;39.54;100947.19;1868992;77;21132;-61
2021/08/28 11:30:54;;;;;;;16.27;8.60;;;;;;;34.09;39.88;100938.97;1869053;77;21128;-62
2021/08/28 11:33:31;;;;;;;11.95;7.53;;;;;;;33.92;40.32;100934.97;1901460;75;21124;-61
2021/08/28 11:36:20;;;;;;;12.45;7.75;;;;;;;33.78;40.00;100934.96;1868386;77;21079;-62
2021/08/28 11:38:54;;;;;;;12.90;7.47;;;;;;;33.55;40.41;100934.47;1868439;77;21509;-61